Time;durP1;ratioP1;P1;durP2;ratioP2;P2;SDS_P1;SDS_P2;PMS_P1;PMS_P2;Temp;Humidity;BMP_temperature;BMP_pressure;BME280_temperature;BME280_humidity;BME280_pressure;Samples;Min_cycle;Max_cycle;Signal;HPM_P1;HPM_P2
2022/06/19 00:00:39;;;;;;;6.95;3.45;;;;;;;15.14;68.31;99551.27;1712028;83;21076;-80
2022/06/19 00:03:13;;;;;;;5.67;3.30;;;;;;;15.15;68.96;99554.27;1758069;81;20978;-80
2022/06/19 00:05:40;;;;;;;11.10;4.28;;;;;;;15.18;70.04;99550.68;1752533;80;21050;-80
2022/06/19 00:08:08;;;;;;;7.37;3.90;;;;;;;15.21;68.64;99554.52;1751612;80;21462;-80
2022/06/19 00:10:34;;;;;;;12.60;4.47;;;;;;;15.16;68.35;99549.88;1754130;81;20987;-81
2022/06/19 00:13:01;;;;;;;7.80;3.80;;;;;;;15.14;68.48;99544.73;1757944;81;20990;-82
2022/06/19 00:15:28;;;;;;;8.38;3.52;;;;;;;15.13;70.41;99553.48;1742705;81;21559;-81
2022/06/19 00:17:55;;;;;;;8.10;4.12;;;;;;;15.14;70.21;99563.06;1759756;81;20982;-80
2022/06/19 00:20:22;;;;;;;9.85;4.15;;;;;;;15.14;68.76;99559.56;1755637;80;21495;-78
2022/06/19 00:22:48;;;;;;;9.45;3.83;;;;;;;15.13;70.27;99565.27;1760170;80;20990;-80
2022/06/19 00:25:15;;;;;;;11.40;4.37;;;;;;;15.11;70.03;99559.23;1753544;80;20987;-80
2022/06/19 00:27:42;;;;;;;7.50;4.25;;;;;;;15.07;70.31;99565.48;1758120;80;20991;-80
2022/06/19 00:30:12;;;;;;;7.28;4.22;;;;;;;15.02;68.24;99558.23;1754526;80;21501;-80
2022/06/19 00:32:39;;;;;;;7.15;3.90;;;;;;;14.91;68.24;99561.25;1736553;80;20990;-81
2022/06/19 00:35:07;;;;;;;5.83;3.70;;;;;;;14.80;68.64;99562.07;1759594;81;21130;-81
2022/06/19 00:37:34;;;;;;;8.35;4.15;;;;;;;14.75;69.92;99562.24;1758122;81;21085;-80
2022/06/19 00:40:03;;;;;;;8.53;4.03;;;;;;;14.73;70.90;99569.75;1754597;80;21006;-81
2022/06/19 00:42:30;;;;;;;7.80;4.08;;;;;;;14.68;69.06;99573.39;1755946;81;20962;-81
2022/06/19 00:44:57;;;;;;;10.98;4.25;;;;;;;14.61;69.33;99564.03;1749597;81;21010;-81
2022/06/19 00:47:27;;;;;;;6.20;4.10;;;;;;;14.54;70.61;99569.02;1769306;80;21816;-81
2022/06/19 00:50:05;;;;;;;7.08;3.92;;;;;;;14.48;70.56;99572.72;1758007;80;20982;-80
2022/06/19 00:52:36;;;;;;;8.73;4.17;;;;;;;14.44;69.12;99565.01;1761774;81;20986;-80
2022/06/19 00:55:17;;;;;;;8.88;4.30;;;;;;;14.34;71.71;99559.22;1733459;81;21030;-80
2022/06/19 00:57:50;;;;;;;7.85;3.92;;;;;;;14.27;70.90;99561.66;1746520;81;21097;-82
2022/06/19 01:00:26;;;;;;;9.38;3.70;;;;;;;14.23;70.59;99562.20;1757691;80;21014;-80
2022/06/19 01:02:55;;;;;;;8.35;3.90;;;;;;;14.18;69.62;99562.80;1755757;81;20987;-80
2022/06/19 01:05:25;;;;;;;7.60;4.22;;;;;;;14.16;72.02;99565.91;1740145;80;21010;-80
2022/06/19 01:07:54;;;;;;;6.72;3.75;;;;;;;14.18;72.36;99566.72;1758170;81;20962;-81
2022/06/19 01:10:21;;;;;;;6.03;3.33;;;;;;;14.24;70.78;99568.28;1753355;81;21022;-81
2022/06/19 01:12:48;;;;;;;8.28;3.87;;;;;;;14.24;71.23;99563.90;1737475;81;21065;-81
2022/06/19 01:15:20;;;;;;;9.25;4.00;;;;;;;14.28;71.32;99563.35;1759124;81;20997;-81
2022/06/19 01:17:53;;;;;;;8.70;4.20;;;;;;;14.32;72.48;99557.11;1758096;81;21503;-81
2022/06/19 01:20:21;;;;;;;5.75;3.87;;;;;;;14.33;73.28;99562.30;1760460;81;20995;-81
2022/06/19 01:23:16;;;;;;;7.22;3.98;;;;;;;14.35;73.99;99558.80;1754518;81;21292;-81
2022/06/19 01:25:44;;;;;;;7.40;4.05;;;;;;;14.36;72.34;99554.80;1761414;81;20974;-80
2022/06/19 01:31:11;;;;;;;8.65;4.25;;;;;;;14.38;71.90;99563.91;1762522;80;20951;-81
2022/06/19 01:33:45;;;;;;;7.47;4.00;;;;;;;14.27;71.06;99568.20;1749851;81;20992;-80
2022/06/19 01:36:15;;;;;;;7.08;3.90;;;;;;;14.19;69.78;99559.75;1695941;84;21082;-81
2022/06/19 01:38:46;;;;;;;8.28;4.28;;;;;;;14.10;73.28;99565.66;1715474;82;21109;-81
2022/06/19 01:41:31;;;;;;;7.37;4.00;;;;;;;14.06;71.32;99564.50;1752855;81;21027;-80
2022/06/19 01:43:59;;;;;;;7.62;4.12;;;;;;;14.00;72.31;99564.23;1708910;83;21041;-80
2022/06/19 01:46:28;;;;;;;10.15;4.40;;;;;;;13.95;71.40;99563.97;1696706;84;21009;-81
2022/06/19 01:48:56;;;;;;;10.03;4.00;;;;;;;13.89;72.93;99565.89;1718167;83;21021;-80
2022/06/19 01:51:23;;;;;;;11.63;3.90;;;;;;;13.84;72.86;99560.41;1758507;81;20991;-81
2022/06/19 01:54:06;;;;;;;6.40;3.42;;;;;;;13.75;71.45;99564.16;1755292;81;21510;-81
2022/06/19 01:56:33;;;;;;;5.87;3.80;;;;;;;13.70;70.69;99569.97;1759634;81;21061;-80
2022/06/19 01:59:08;;;;;;;8.48;4.15;;;;;;;13.59;73.09;99563.77;1757871;81;21030;-81
2022/06/19 02:01:36;;;;;;;7.03;4.37;;;;;;;13.51;71.58;99574.91;1730698;83;21009;-80
2022/06/19 02:04:06;;;;;;;6.12;3.60;;;;;;;13.42;71.76;99568.17;1722802;81;21001;-80
2022/06/19 02:06:46;;;;;;;7.50;3.87;;;;;;;13.39;72.47;99572.63;1737726;81;20986;-80
2022/06/19 02:09:17;;;;;;;7.72;4.03;;;;;;;13.37;73.68;99574.42;1745329;81;21010;-80
2022/06/19 02:11:43;;;;;;;5.97;3.70;;;;;;;13.39;73.82;99578.73;1734470;81;21555;-80
2022/06/19 02:14:13;;;;;;;6.65;4.20;;;;;;;13.39;74.25;99573.50;1729979;83;21037;-81
2022/06/19 02:16:43;;;;;;;9.10;3.50;;;;;;;13.39;73.86;99568.28;1732210;81;21481;-81
2022/06/19 02:19:10;;;;;;;7.58;3.17;;;;;;;13.37;74.71;99574.00;1747330;81;21014;-80
2022/06/19 02:21:52;;;;;;;6.70;4.08;;;;;;;13.38;74.82;99568.31;1726872;81;21021;-80
2022/06/19 02:24:23;;;;;;;8.80;4.60;;;;;;;13.38;74.67;99562.64;1734576;81;21521;-82
2022/06/19 02:26:51;;;;;;;11.03;4.75;;;;;;;13.38;75.23;99561.33;1727815;83;20965;-82
2022/06/19 02:29:20;;;;;;;10.03;4.28;;;;;;;13.36;74.20;99576.19;1753815;81;21028;-82
2022/06/19 02:31:51;;;;;;;7.47;4.08;;;;;;;13.38;76.42;99563.09;1737626;82;20985;-79
2022/06/19 02:34:25;;;;;;;9.40;4.45;;;;;;;13.44;74.99;99566.83;1771157;80;21446;-80
2022/06/19 02:36:58;;;;;;;9.45;4.58;;;;;;;13.46;75.14;99566.33;1738823;81;21070;-81
2022/06/19 02:39:42;;;;;;;8.10;3.83;;;;;;;13.50;75.24;99565.34;1762030;80;21601;-85
2022/06/19 02:42:35;;;;;;;7.90;4.12;;;;;;;13.52;76.18;99569.61;1750604;80;21007;-80
2022/06/19 02:45:14;;;;;;;13.45;4.30;;;;;;;13.53;75.38;99571.80;1732860;83;21042;-81
2022/06/19 02:47:41;;;;;;;7.72;3.90;;;;;;;13.53;75.88;99570.48;1720967;83;21580;-80
2022/06/19 02:50:12;;;;;;;6.30;3.50;;;;;;;13.57;76.14;99572.53;1727079;83;21072;-79
2022/06/19 02:52:38;;;;;;;8.80;4.47;;;;;;;13.56;76.12;99569.53;1706737;83;21564;-80
2022/06/19 02:55:07;;;;;;;7.30;3.72;;;;;;;13.49;74.49;99574.09;1726892;83;21044;-81
2022/06/19 02:57:34;;;;;;;6.45;4.10;;;;;;;13.42;73.98;99581.23;1708503;83;21010;-80
2022/06/19 03:00:01;;;;;;;7.00;3.80;;;;;;;13.36;74.41;99586.64;1724785;83;20997;-80
2022/06/19 03:02:28;;;;;;;7.47;3.75;;;;;;;13.33;76.20;99584.13;1715165;83;21021;-81
2022/06/19 03:05:02;;;;;;;6.45;3.72;;;;;;;13.30;73.41;99588.97;1709354;82;21053;-80
2022/06/19 03:07:29;;;;;;;6.80;3.45;;;;;;;13.24;74.53;99586.50;1717085;82;21037;-81
2022/06/19 03:09:56;;;;;;;9.55;4.10;;;;;;;13.23;75.93;99587.84;1705959;83;21089;-80
2022/06/19 03:12:23;;;;;;;8.65;3.77;;;;;;;13.22;75.99;99588.75;1720749;83;21488;-81
2022/06/19 03:14:50;;;;;;;10.08;3.72;;;;;;;13.22;75.57;99586.14;1710765;83;21044;-82
2022/06/19 03:17:21;;;;;;;10.50;4.28;;;;;;;13.21;76.23;99590.52;1723377;83;21567;-79
2022/06/19 03:19:49;;;;;;;9.63;3.90;;;;;;;13.22;74.39;99594.83;1712960;83;21115;-81
2022/06/19 03:22:16;;;;;;;6.90;3.83;;;;;;;13.22;75.50;99591.36;1724198;83;21517;-81
2022/06/19 03:24:43;;;;;;;7.03;3.92;;;;;;;13.25;76.90;99601.28;1754701;81;20986;-81
2022/06/19 03:27:11;;;;;;;9.50;4.05;;;;;;;13.31;76.29;99599.83;1762748;81;20973;-81
2022/06/19 03:29:38;;;;;;;6.85;3.77;;;;;;;13.35;74.54;99604.95;1686200;83;21065;-81
2022/06/19 03:32:08;;;;;;;5.72;3.70;;;;;;;13.40;75.88;99598.70;1699871;84;21513;-81
2022/06/19 03:34:35;;;;;;;6.78;3.90;;;;;;;13.46;76.08;99604.20;1713029;82;21109;-82
2022/06/19 03:37:01;;;;;;;6.90;3.98;;;;;;;13.54;76.69;99606.14;1681943;85;21114;-81
2022/06/19 03:39:28;;;;;;;6.53;3.70;;;;;;;13.61;76.09;99601.16;1706308;82;21099;-80
2022/06/19 03:41:55;;;;;;;6.40;3.90;;;;;;;13.68;75.60;99603.13;1732135;82;21632;-80
2022/06/19 03:44:22;;;;;;;6.30;3.58;;;;;;;13.72;75.54;99600.37;1756124;80;20991;-81
2022/06/19 03:46:48;;;;;;;8.83;3.67;;;;;;;13.78;75.79;99600.64;1754687;80;21550;-80
2022/06/19 03:49:15;;;;;;;9.78;4.15;;;;;;;13.84;75.36;99601.76;1758111;81;20943;-80
2022/06/19 03:51:42;;;;;;;8.65;4.70;;;;;;;13.87;75.01;99607.37;1741354;81;21494;-80
2022/06/19 03:54:10;;;;;;;10.03;4.75;;;;;;;13.90;74.55;99602.02;1754370;81;20990;-81
2022/06/19 03:56:37;;;;;;;12.13;5.65;;;;;;;13.90;75.06;99600.72;1760093;81;21549;-80
2022/06/19 03:59:07;;;;;;;13.45;5.92;;;;;;;13.90;73.24;99598.11;1762360;81;21045;-81
2022/06/19 04:01:37;;;;;;;13.35;5.90;;;;;;;13.89;74.39;99597.26;1759000;80;20994;-82
2022/06/19 04:04:04;;;;;;;9.95;4.70;;;;;;;13.91;73.59;99603.75;1763865;81;21057;-82
2022/06/19 04:06:35;;;;;;;9.63;5.53;;;;;;;13.93;74.71;99603.25;1762811;80;21471;-82
2022/06/19 04:09:05;;;;;;;8.68;4.40;;;;;;;13.98;75.19;99600.03;1762656;81;21026;-81
2022/06/19 04:11:33;;;;;;;8.38;4.37;;;;;;;14.05;74.64;99598.09;1718318;82;21073;-81
2022/06/19 04:14:02;;;;;;;8.50;4.90;;;;;;;14.07;74.48;99603.67;1735153;82;21591;-80
2022/06/19 04:16:32;;;;;;;12.90;4.78;;;;;;;14.11;75.07;99600.05;1743360;81;20967;-81
2022/06/19 04:19:04;;;;;;;7.92;4.62;;;;;;;14.15;73.90;99607.82;1761918;80;21089;-83
2022/06/19 04:21:35;;;;;;;12.23;5.20;;;;;;;14.18;73.90;99607.25;1751356;81;21022;-80
2022/06/19 04:24:04;;;;;;;7.45;4.60;;;;;;;14.22;74.21;99608.02;1742874;81;21025;-81
2022/06/19 04:26:34;;;;;;;7.15;4.85;;;;;;;14.26;73.67;99614.85;1761474;80;21038;-83
2022/06/19 04:29:02;;;;;;;11.38;5.15;;;;;;;14.30;73.95;99608.62;1762328;81;21523;-80
2022/06/19 04:31:29;;;;;;;10.23;4.80;;;;;;;14.36;72.55;99613.65;1751488;80;21030;-81
2022/06/19 04:33:55;;;;;;;7.87;3.62;;;;;;;14.42;73.15;99606.91;1753080;81;21637;-81
2022/06/19 04:36:25;;;;;;;8.50;3.80;;;;;;;14.46;71.63;99607.23;1761130;81;21034;-81
2022/06/19 04:38:56;;;;;;;5.70;3.55;;;;;;;14.49;71.40;99599.73;1753874;80;21059;-81
2022/06/19 04:41:31;;;;;;;7.70;3.65;;;;;;;14.55;71.58;99599.52;1740867;82;21034;-80
2022/06/19 04:43:59;;;;;;;5.58;3.58;;;;;;;14.63;71.15;99600.61;1741074;82;20964;-80
2022/06/19 04:46:27;;;;;;;7.60;3.77;;;;;;;14.75;71.41;99610.66;1741800;82;21027;-78
2022/06/19 04:48:54;;;;;;;5.35;3.62;;;;;;;14.85;71.43;99608.12;1735881;82;21265;-80
2022/06/19 04:51:21;;;;;;;4.80;3.17;;;;;;;14.91;71.21;99603.14;1743433;82;21008;-81
2022/06/19 04:53:48;;;;;;;5.60;2.87;;;;;;;14.95;70.95;99606.05;1739272;82;21044;-83
2022/06/19 04:56:18;;;;;;;6.58;2.92;;;;;;;15.07;70.78;99608.23;1743752;82;20983;-80
2022/06/19 04:58:45;;;;;;;5.95;3.27;;;;;;;15.13;70.44;99601.92;1742853;82;20996;-81
2022/06/19 05:01:20;;;;;;;4.95;3.22;;;;;;;15.20;69.96;99601.23;1738621;82;20951;-81
2022/06/19 05:03:47;;;;;;;8.85;3.58;;;;;;;15.26;69.81;99603.20;1739331;82;21547;-80
2022/06/19 05:06:13;;;;;;;6.33;3.40;;;;;;;15.35;69.68;99603.77;1739460;82;21075;-79
2022/06/19 05:08:40;;;;;;;7.62;3.67;;;;;;;15.43;69.26;99601.27;1740631;82;21534;-79
2022/06/19 05:11:10;;;;;;;6.20;3.83;;;;;;;15.45;69.52;99594.20;1743380;82;20975;-80
2022/06/19 05:13:37;;;;;;;8.18;4.10;;;;;;;15.53;69.67;99591.30;1739959;82;21031;-81
2022/06/19 05:16:14;;;;;;;7.28;3.80;;;;;;;15.64;69.84;99586.52;1750193;82;21018;-81
2022/06/19 05:18:42;;;;;;;11.70;4.00;;;;;;;15.73;69.58;99593.66;1694417;83;21511;-81
2022/06/19 05:21:10;;;;;;;10.03;3.85;;;;;;;15.81;68.84;99599.45;1695305;83;21030;-80
2022/06/19 05:23:41;;;;;;;7.92;3.60;;;;;;;15.89;69.26;99589.52;1692270;83;21091;-81
2022/06/19 05:26:16;;;;;;;11.38;4.60;;;;;;;15.99;68.46;99594.80;1681185;83;21576;-82
2022/06/19 05:28:44;;;;;;;6.42;3.95;;;;;;;16.04;68.07;99586.77;1694283;84;21045;-82
2022/06/19 05:31:11;;;;;;;9.58;4.10;;;;;;;16.13;67.97;99594.72;1682930;83;21019;-80
2022/06/19 05:33:38;;;;;;;9.20;3.90;;;;;;;16.20;67.96;99595.73;1695599;85;21549;-82
2022/06/19 05:36:05;;;;;;;7.42;4.22;;;;;;;16.28;67.72;99592.33;1683916;83;21045;-81
2022/06/19 05:38:32;;;;;;;8.43;4.30;;;;;;;16.36;67.06;99601.20;1743729;82;21336;-80
2022/06/19 05:41:00;;;;;;;10.30;4.67;;;;;;;16.41;67.26;99594.02;1728243;81;20991;-81
2022/06/19 05:43:30;;;;;;;7.33;4.17;;;;;;;16.53;66.90;99603.13;1752202;81;21077;-81
2022/06/19 05:46:02;;;;;;;9.03;4.47;;;;;;;16.62;66.23;99605.84;1738873;81;21004;-81
2022/06/19 05:48:31;;;;;;;6.05;3.12;;;;;;;16.71;65.92;99601.50;1746629;81;21455;-81
2022/06/19 05:51:05;;;;;;;6.45;2.90;;;;;;;16.80;65.51;99606.38;1744319;81;21031;-81
2022/06/19 05:53:39;;;;;;;5.00;3.33;;;;;;;16.87;64.04;99599.11;1739363;81;21019;-81
2022/06/19 05:56:06;;;;;;;7.22;2.90;;;;;;;16.92;63.13;99601.09;1734170;81;20991;-80
2022/06/19 05:58:34;;;;;;;7.85;3.02;;;;;;;17.00;63.40;99597.66;1746755;81;21463;-81
2022/06/19 06:01:02;;;;;;;4.80;3.05;;;;;;;17.09;61.89;99601.69;1741491;81;21102;-80
2022/06/19 06:03:29;;;;;;;5.70;2.62;;;;;;;17.18;62.47;99599.95;1747087;82;20947;-82
2022/06/19 06:06:02;;;;;;;6.20;2.85;;;;;;;17.28;61.44;99595.98;1748339;81;21007;-81
2022/06/19 06:08:30;;;;;;;6.72;2.92;;;;;;;17.31;59.98;99595.02;1749705;81;20983;-81
2022/06/19 06:10:56;;;;;;;3.87;2.60;;;;;;;17.40;60.69;99595.05;1708508;83;21555;-81
2022/06/19 06:13:23;;;;;;;6.12;3.27;;;;;;;17.46;59.73;99602.66;1698751;84;20981;-82
2022/06/19 06:15:50;;;;;;;5.45;2.90;;;;;;;17.55;58.97;99608.82;1703536;84;21033;-81
2022/06/19 06:18:17;;;;;;;4.95;2.52;;;;;;;17.64;59.50;99608.84;1717754;83;21019;-82
2022/06/19 06:20:43;;;;;;;6.12;2.77;;;;;;;17.74;58.87;99603.55;1747536;82;20991;-81
2022/06/19 06:23:11;;;;;;;7.85;2.70;;;;;;;17.87;59.42;99605.20;1742756;82;20964;-80
2022/06/19 06:25:40;;;;;;;6.95;2.87;;;;;;;17.98;57.30;99595.47;1757106;81;21526;-82
2022/06/19 06:28:06;;;;;;;5.33;2.47;;;;;;;18.07;58.02;99595.05;1747843;81;21523;-81
2022/06/19 06:30:32;;;;;;;8.35;2.90;;;;;;;18.18;57.50;99599.77;1749009;82;21033;-81
2022/06/19 06:32:59;;;;;;;6.05;2.50;;;;;;;18.27;56.77;99599.34;1700601;83;21085;-80
2022/06/19 06:35:26;;;;;;;4.92;2.27;;;;;;;18.36;57.14;99594.92;1707142;83;21070;-82
2022/06/19 06:37:53;;;;;;;5.08;2.60;;;;;;;18.46;56.83;99592.25;1722195;83;21018;-82
2022/06/19 06:40:19;;;;;;;6.40;2.67;;;;;;;18.57;56.78;99582.95;1683045;84;21003;-82
2022/06/19 06:42:48;;;;;;;5.55;2.85;;;;;;;18.68;54.72;99585.88;1711058;83;21561;-82
2022/06/19 06:45:15;;;;;;;5.83;2.55;;;;;;;18.77;56.31;99582.78;1702348;83;21529;-82
2022/06/19 06:47:42;;;;;;;4.87;2.58;;;;;;;18.86;55.73;99579.73;1711132;83;21042;-82
2022/06/19 06:50:09;;;;;;;3.30;2.00;;;;;;;18.95;54.66;99581.49;1691717;83;21041;-82
2022/06/19 06:52:36;;;;;;;5.00;2.30;;;;;;;19.04;53.58;99577.08;1717767;83;21063;-81
2022/06/19 06:55:03;;;;;;;4.55;2.37;;;;;;;19.12;53.48;99572.69;1708424;83;21514;-82
2022/06/19 06:57:29;;;;;;;5.60;3.08;;;;;;;19.22;53.77;99569.98;1724986;83;20983;-82
2022/06/19 06:59:56;;;;;;;5.10;2.30;;;;;;;19.34;53.37;99571.08;1714087;83;21085;-82
2022/06/19 07:02:22;;;;;;;4.72;2.30;;;;;;;19.45;53.31;99575.32;1710809;82;20995;-82
2022/06/19 07:04:49;;;;;;;5.80;2.22;;;;;;;19.57;54.03;99571.17;1708525;82;21493;-81
2022/06/19 07:07:17;;;;;;;3.67;2.40;;;;;;;19.68;53.35;99575.39;1721613;83;21010;-82
2022/06/19 07:09:43;;;;;;;4.50;2.27;;;;;;;19.82;53.31;99569.39;1721249;83;21023;-83
2022/06/19 07:12:11;;;;;;;5.03;2.60;;;;;;;19.96;53.27;99569.46;1706188;83;21025;-82
2022/06/19 07:14:38;;;;;;;5.50;2.72;;;;;;;20.09;52.73;99565.64;1707888;84;21478;-82
2022/06/19 07:17:05;;;;;;;4.80;2.30;;;;;;;20.26;52.91;99568.66;1685498;84;21006;-82
2022/06/19 07:19:33;;;;;;;4.05;2.30;;;;;;;20.39;52.60;99567.02;1698172;82;21541;-83
2022/06/19 07:21:59;;;;;;;5.28;2.58;;;;;;;20.51;52.48;99562.78;1707540;82;21017;-82
2022/06/19 07:24:26;;;;;;;5.12;2.58;;;;;;;20.60;52.00;99555.67;1727374;83;21052;-81
2022/06/19 07:26:53;;;;;;;4.50;2.47;;;;;;;20.72;51.71;99558.54;1693663;84;21045;-83
2022/06/19 07:29:20;;;;;;;5.95;2.72;;;;;;;20.88;51.81;99559.31;1710863;82;21018;-83
2022/06/19 07:31:46;;;;;;;6.03;2.37;;;;;;;21.00;51.42;99547.15;1717184;82;21019;-82
2022/06/19 07:34:13;;;;;;;3.60;2.10;;;;;;;21.13;51.68;99548.56;1739395;81;20988;-83
2022/06/19 07:36:40;;;;;;;4.40;2.25;;;;;;;21.27;51.36;99548.58;1711370;83;21959;-83
2022/06/19 07:39:06;;;;;;;7.10;2.30;;;;;;;21.38;50.53;99544.77;1728485;83;21098;-83
2022/06/19 07:41:33;;;;;;;3.90;2.17;;;;;;;21.47;50.22;99545.17;1706113;83;21527;-82
2022/06/19 07:43:59;;;;;;;5.85;2.33;;;;;;;21.55;49.95;99538.95;1712428;83;21010;-82
2022/06/19 07:46:26;;;;;;;6.17;2.20;;;;;;;21.66;49.69;99547.03;1707101;83;21017;-83
2022/06/19 07:51:38;;;;;;;4.12;2.30;;;;;;;21.80;48.83;99535.56;1726220;83;20994;-82
2022/06/19 07:54:05;;;;;;;3.77;2.00;;;;;;;21.92;49.14;99536.08;1711589;83;21524;-82
2022/06/19 07:56:31;;;;;;;3.87;1.90;;;;;;;22.04;47.67;99528.69;1707649;82;21006;-83
2022/06/19 07:58:58;;;;;;;3.17;2.02;;;;;;;22.12;47.13;99532.61;1697365;83;21026;-83
2022/06/19 08:01:25;;;;;;;3.25;2.05;;;;;;;22.18;47.24;99524.26;1708407;83;21017;-83
2022/06/19 08:03:52;;;;;;;4.15;2.02;;;;;;;22.29;47.50;99516.48;1699283;82;21001;-82
2022/06/19 08:06:19;;;;;;;4.90;2.10;;;;;;;22.40;47.99;99516.62;1729506;82;21023;-83
2022/06/19 08:08:47;;;;;;;4.85;2.00;;;;;;;22.53;47.92;99515.79;1692169;83;21018;-82
2022/06/19 08:11:14;;;;;;;4.90;2.00;;;;;;;22.63;47.27;99508.91;1712685;83;21009;-83
2022/06/19 08:13:40;;;;;;;4.00;2.30;;;;;;;22.73;46.38;99499.36;1703557;83;21109;-82
2022/06/19 08:16:09;;;;;;;3.30;2.10;;;;;;;22.79;46.29;99493.64;1711585;83;21093;-83
2022/06/19 08:18:38;;;;;;;3.20;1.90;;;;;;;22.92;46.04;99503.38;1708254;82;21046;-84
2022/06/19 08:21:05;;;;;;;3.33;1.87;;;;;;;23.00;45.30;99503.72;1726305;83;20983;-84
2022/06/19 08:23:32;;;;;;;5.20;1.82;;;;;;;23.07;44.70;99501.02;1713179;82;21009;-83
2022/06/19 08:25:59;;;;;;;4.08;2.25;;;;;;;23.15;45.08;99497.34;1711937;82;21065;-81
2022/06/19 08:31:00;;;;;;;3.77;2.12;;;;;;;23.28;44.96;99471.27;1713597;82;21014;-81
2022/06/19 08:33:27;;;;;;;4.20;1.65;;;;;;;23.48;45.17;99481.31;1723839;83;21008;-82
2022/06/19 08:35:58;;;;;;;3.40;1.90;;;;;;;23.60;45.02;99476.43;1705990;82;21109;-82
2022/06/19 08:38:30;;;;;;;3.92;1.87;;;;;;;23.76;43.56;99476.64;1708989;82;21037;-81
2022/06/19 08:41:22;;;;;;;6.63;1.90;;;;;;;23.89;42.94;99469.47;1713248;82;21046;-81
2022/06/19 08:44:22;;;;;;;3.35;1.87;;;;;;;24.00;43.85;99468.69;1725929;82;21029;-83
2022/06/19 08:47:08;;;;;;;3.77;2.10;;;;;;;24.10;43.15;99456.41;1711687;82;21030;-82
2022/06/19 08:49:57;;;;;;;2.98;1.77;;;;;;;24.19;42.54;99463.69;1719309;82;21041;-82
2022/06/19 08:52:44;;;;;;;7.72;2.00;;;;;;;24.36;42.15;99459.73;1725826;82;21105;-83
2022/06/19 08:55:37;;;;;;;3.47;1.90;;;;;;;24.50;42.44;99461.81;1712993;82;21467;-81
2022/06/19 08:58:31;;;;;;;3.70;1.70;;;;;;;24.64;42.93;99458.97;1719197;82;21536;-82
2022/06/19 09:01:17;;;;;;;4.45;1.98;;;;;;;24.75;42.44;99452.34;1716355;82;21037;-82
2022/06/19 09:07:52;;;;;;;5.08;1.95;;;;;;;25.03;41.51;99449.29;1694305;84;21046;-82
2022/06/19 09:10:48;;;;;;;4.78;1.55;;;;;;;25.14;38.39;99447.47;1698544;83;21058;-83
2022/06/19 09:14:00;;;;;;;2.95;1.37;;;;;;;25.18;39.35;99445.41;1698188;84;21121;-84
2022/06/19 09:16:59;;;;;;;3.45;1.60;;;;;;;25.31;40.08;99445.31;1707118;83;21049;-83
2022/06/19 09:19:51;;;;;;;2.98;1.35;;;;;;;25.44;39.27;99449.15;1705365;84;21042;-83
2022/06/19 09:22:39;;;;;;;3.10;1.50;;;;;;;25.51;38.88;99447.69;1693074;84;21513;-84
2022/06/19 09:25:21;;;;;;;2.90;1.60;;;;;;;25.57;38.72;99437.87;1705055;84;21075;-82
2022/06/19 09:27:52;;;;;;;3.60;1.75;;;;;;;25.69;38.51;99440.84;1684635;84;21030;-83
2022/06/19 09:30:44;;;;;;;3.27;1.90;;;;;;;25.85;39.22;99436.42;1693410;84;21021;-83
2022/06/19 09:33:48;;;;;;;4.28;1.90;;;;;;;25.98;39.15;99438.47;1713395;82;21002;-82
2022/06/19 09:36:57;;;;;;;3.40;1.80;;;;;;;26.10;39.26;99433.05;1706898;82;21141;-83
2022/06/19 09:39:46;;;;;;;2.92;1.70;;;;;;;26.24;39.16;99427.89;1728419;82;21013;-82
2022/06/19 09:42:36;;;;;;;2.70;1.60;;;;;;;26.37;37.99;99420.55;1732643;82;21010;-83
2022/06/19 09:45:17;;;;;;;2.52;1.67;;;;;;;26.49;38.33;99415.48;1713844;82;21057;-82
2022/06/19 09:47:49;;;;;;;3.02;1.62;;;;;;;26.54;37.86;99418.61;1735829;82;22002;-83
2022/06/19 09:50:49;;;;;;;2.25;1.50;;;;;;;26.55;36.06;99413.63;1729964;82;21081;-83
2022/06/19 09:53:42;;;;;;;3.30;1.60;;;;;;;26.51;35.59;99410.86;1761521;80;21082;-85
2022/06/19 09:56:14;;;;;;;4.28;1.67;;;;;;;26.45;35.09;99410.56;1758552;80;21043;-82
2022/06/19 09:58:49;;;;;;;3.27;1.65;;;;;;;26.39;34.90;99402.10;1758802;81;20995;-83
2022/06/19 10:01:16;;;;;;;2.37;1.47;;;;;;;26.39;34.72;99401.27;1763475;80;21055;-84
2022/06/19 10:03:54;;;;;;;3.75;1.72;;;;;;;26.45;34.56;99399.90;1749709;81;21023;-84
2022/06/19 10:06:41;;;;;;;2.47;1.60;;;;;;;26.44;35.48;99394.20;1757352;81;20970;-85
2022/06/19 10:09:37;;;;;;;3.87;2.10;;;;;;;26.47;34.90;99394.78;1761120;81;21073;-83
2022/06/19 10:12:08;;;;;;;2.62;1.42;;;;;;;26.48;34.96;99393.82;1762738;81;21050;-81
2022/06/19 10:14:46;;;;;;;2.90;1.52;;;;;;;26.61;34.90;99389.62;1750419;81;21533;-83
2022/06/19 10:17:27;;;;;;;3.37;1.80;;;;;;;26.73;35.21;99387.20;1753642;80;20924;-84
2022/06/19 10:20:17;;;;;;;2.75;1.50;;;;;;;26.88;35.79;99384.16;1745694;80;21035;-83
2022/06/19 10:23:01;;;;;;;3.87;1.70;;;;;;;26.98;35.33;99373.05;1745125;81;21014;-82
2022/06/19 10:26:13;;;;;;;3.08;1.65;;;;;;;27.01;34.96;99375.42;1751333;80;21058;-83
2022/06/19 10:29:11;;;;;;;3.30;1.70;;;;;;;27.13;35.44;99370.81;1764923;81;20986;-84
2022/06/19 10:32:03;;;;;;;4.62;1.50;;;;;;;27.30;33.99;99368.84;1764644;81;20999;-83
2022/06/19 10:34:43;;;;;;;2.60;1.60;;;;;;;27.46;34.46;99361.63;1761237;80;21051;-84
2022/06/19 10:37:48;;;;;;;3.42;1.80;;;;;;;27.59;34.22;99361.33;1756061;80;21039;-83
2022/06/19 10:40:38;;;;;;;2.75;1.50;;;;;;;27.65;34.45;99351.41;1700906;83;20993;-84
2022/06/19 10:43:28;;;;;;;4.50;1.72;;;;;;;27.82;33.63;99351.20;1717638;82;21066;-84
2022/06/19 10:46:02;;;;;;;2.22;1.50;;;;;;;27.86;33.63;99342.41;1709548;82;21109;-83
2022/06/19 10:48:52;;;;;;;2.77;1.50;;;;;;;27.98;32.71;99344.46;1704999;83;21010;-83
2022/06/19 10:51:42;;;;;;;2.42;1.40;;;;;;;27.96;32.73;99334.75;1709373;84;21049;-84
2022/06/19 10:54:38;;;;;;;4.00;1.65;;;;;;;28.08;32.81;99335.92;1747753;82;20991;-83
2022/06/19 10:57:37;;;;;;;3.27;1.85;;;;;;;28.19;33.16;99331.72;1755561;82;21026;-84
2022/06/19 11:00:07;;;;;;;5.62;1.67;;;;;;;28.31;32.06;99335.06;1756182;82;21004;-83
2022/06/19 11:05:45;;;;;;;3.83;1.60;;;;;;;28.52;32.02;99336.22;1748965;82;21025;-85
2022/06/19 11:08:12;;;;;;;2.30;1.40;;;;;;;28.50;30.93;99335.48;1753795;81;21022;-83
2022/06/19 11:10:47;;;;;;;1.95;1.45;;;;;;;28.47;30.81;99333.96;1757465;82;21030;-84
2022/06/19 11:13:14;;;;;;;3.30;1.72;;;;;;;28.56;31.31;99332.25;1748897;82;21034;-84
2022/06/19 11:15:48;;;;;;;3.90;1.40;;;;;;;28.62;30.94;99327.64;1742080;81;21057;-83
2022/06/19 11:18:20;;;;;;;2.37;1.40;;;;;;;28.73;31.01;99332.80;1744061;80;21026;-83
2022/06/19 11:21:12;;;;;;;3.05;1.40;;;;;;;28.91;30.53;99333.34;1747390;82;21011;-83
2022/06/19 11:23:51;;;;;;;1.95;1.20;;;;;;;28.87;30.31;99333.27;1720848;83;20991;-83
2022/06/19 11:26:41;;;;;;;3.02;1.50;;;;;;;29.02;29.64;99325.59;1687416;84;21064;-83
2022/06/19 11:29:18;;;;;;;5.35;2.50;;;;;;;28.94;29.09;99329.84;1688839;84;21034;-84
2022/06/19 11:32:13;;;;;;;2.80;1.40;;;;;;;28.94;29.46;99337.04;1712176;83;21049;-83
2022/06/19 11:34:48;;;;;;;2.42;1.40;;;;;;;29.09;28.95;99325.34;1685261;85;20982;-85
2022/06/19 11:37:37;;;;;;;1.75;1.10;;;;;;;29.27;29.19;99322.70;1732289;83;21036;-85
2022/06/19 11:40:14;;;;;;;3.33;1.30;;;;;;;29.46;29.20;99326.53;1728392;82;21503;-85
2022/06/19 11:42:54;;;;;;;2.70;1.52;;;;;;;29.71;29.11;99322.73;1790745;80;21002;-84
2022/06/19 11:45:26;;;;;;;1.95;1.20;;;;;;;29.89;28.49;99316.86;1737492;81;21022;-85
2022/06/19 11:48:03;;;;;;;3.87;1.25;;;;;;;29.90;27.40;99312.33;1759211;80;20972;-86
2022/06/19 11:50:42;;;;;;;4.83;1.30;;;;;;;30.01;27.74;99313.42;1766160;81;20975;-86
2022/06/19 11:53:22;;;;;;;2.22;1.27;;;;;;;30.21;27.86;99311.36;1770778;80;20998;-86
2022/06/19 11:56:14;;;;;;;3.33;1.30;;;;;;;30.44;27.36;99306.79;1713782;84;20986;-86
2022/06/19 11:58:45;;;;;;;2.00;1.30;;;;;;;30.62;27.44;99302.67;1721792;83;21011;-86
2022/06/19 12:01:16;;;;;;;2.27;1.40;;;;;;;30.79;25.17;99299.55;1721586;83;21039;-86
2022/06/19 12:03:58;;;;;;;3.52;1.45;;;;;;;30.85;26.32;99296.20;1731825;82;21003;-86
2022/06/19 12:06:45;;;;;;;2.02;1.47;;;;;;;30.98;26.23;99293.06;1751716;80;21034;-84
2022/06/19 12:09:32;;;;;;;1.92;1.27;;;;;;;31.23;26.40;99282.70;1693125;83;21066;-85
2022/06/19 12:12:13;;;;;;;2.67;1.40;;;;;;;31.50;25.68;99276.19;1704987;84;21051;-86
2022/06/19 12:15:15;;;;;;;1.72;1.17;;;;;;;31.59;25.38;99271.64;1709971;84;21015;-85